Time;durP1;ratioP1;P1;durP2;ratioP2;P2;SDS_P1;SDS_P2;PMS_P1;PMS_P2;Temp;Humidity;BMP_temperature;BMP_pressure;BME280_temperature;BME280_humidity;BME280_pressure;Samples;Min_cycle;Max_cycle;Signal;HPM_P1;HPM_P2
2022/08/17 00:02:08;;;;;;;;;;;26.80;36.80;;;;;;8397234;28;19913;-44
2022/08/17 00:06:13;;;;;;;;;;;26.80;36.90;;;;;;8397246;28;19920;-45
2022/08/17 00:10:13;;;;;;;;;;;26.90;36.90;;;;;;8397261;28;19923;-45
2022/08/17 00:14:16;;;;;;;;;;;26.80;36.90;;;;;;8396659;28;19931;-45
2022/08/17 00:18:16;;;;;;;;;;;26.90;37.00;;;;;;8397081;28;19928;-45
2022/08/17 00:22:17;;;;;;;;;;;26.80;36.90;;;;;;8397360;28;19912;-45
2022/08/17 00:26:18;;;;;;;;;;;26.80;36.90;;;;;;8396447;28;19917;-45
2022/08/17 00:30:19;;;;;;;;;;;26.80;37.00;;;;;;8396796;28;19928;-45
2022/08/17 00:34:19;;;;;;;;;;;26.80;36.90;;;;;;8396860;28;20433;-45
2022/08/17 00:38:20;;;;;;;;;;;26.80;37.00;;;;;;8396167;28;20296;-45
2022/08/17 00:42:20;;;;;;;;;;;26.80;37.00;;;;;;8397147;28;19940;-45
2022/08/17 00:46:23;;;;;;;;;;;26.80;37.00;;;;;;8396610;28;20408;-44
2022/08/17 00:50:23;;;;;;;;;;;26.80;37.00;;;;;;8396316;28;19917;-45
2022/08/17 00:54:27;;;;;;;;;;;26.80;37.00;;;;;;8396423;28;19970;-45
2022/08/17 00:58:27;;;;;;;;;;;26.80;37.00;;;;;;8396419;28;20015;-45
2022/08/17 01:02:28;;;;;;;;;;;26.80;37.00;;;;;;8396103;28;19923;-45
2022/08/17 01:06:29;;;;;;;;;;;26.80;37.00;;;;;;8396246;28;19963;-45
2022/08/17 01:10:34;;;;;;;;;;;26.80;37.00;;;;;;8394769;28;19912;-45
2022/08/17 01:14:35;;;;;;;;;;;26.80;37.00;;;;;;8395735;28;19924;-45
2022/08/17 01:18:36;;;;;;;;;;;26.80;37.00;;;;;;8395943;28;19960;-45
2022/08/17 01:22:37;;;;;;;;;;;26.80;37.10;;;;;;8396183;28;19969;-46
2022/08/17 01:26:40;;;;;;;;;;;26.80;37.00;;;;;;8395428;28;19917;-44
2022/08/17 01:30:41;;;;;;;;;;;26.70;37.00;;;;;;8395985;28;19917;-44
2022/08/17 01:34:41;;;;;;;;;;;26.70;37.10;;;;;;8395965;28;19962;-44
2022/08/17 01:38:42;;;;;;;;;;;26.70;37.10;;;;;;8395175;28;19925;-45
2022/08/17 01:42:50;;;;;;;;;;;26.70;37.10;;;;;;8396512;28;19920;-44
2022/08/17 01:46:50;;;;;;;;;;;26.70;37.10;;;;;;8401951;28;20377;-45
2022/08/17 01:50:51;;;;;;;;;;;26.70;37.10;;;;;;8401153;28;19917;-45
2022/08/17 01:54:52;;;;;;;;;;;26.70;37.10;;;;;;8401663;28;20285;-45
2022/08/17 01:58:52;;;;;;;;;;;26.70;37.10;;;;;;8401406;28;19930;-45
2022/08/17 02:02:53;;;;;;;;;;;26.70;37.10;;;;;;8401020;28;19920;-46
2022/08/17 02:06:53;;;;;;;;;;;26.70;37.10;;;;;;8401160;28;19923;-45
2022/08/17 02:10:54;;;;;;;;;;;26.70;37.10;;;;;;8401100;28;19917;-45
2022/08/17 02:14:54;;;;;;;;;;;26.70;37.10;;;;;;8400712;28;20300;-45
2022/08/17 02:18:55;;;;;;;;;;;26.70;37.10;;;;;;8400610;28;20019;-44
2022/08/17 02:22:56;;;;;;;;;;;26.70;37.10;;;;;;8400557;28;19917;-45
2022/08/17 02:26:57;;;;;;;;;;;26.70;37.10;;;;;;8400406;28;19920;-45
2022/08/17 02:31:02;;;;;;;;;;;26.70;37.20;;;;;;8400507;28;20297;-45
2022/08/17 02:35:03;;;;;;;;;;;26.70;37.20;;;;;;8399941;28;19916;-45
2022/08/17 02:39:05;;;;;;;;;;;26.60;37.10;;;;;;8400017;28;19924;-45
2022/08/17 02:43:07;;;;;;;;;;;26.60;37.10;;;;;;8400240;28;19958;-45
2022/08/17 02:47:09;;;;;;;;;;;26.60;37.10;;;;;;8399455;28;20288;-46
2022/08/17 02:51:09;;;;;;;;;;;26.60;37.10;;;;;;8399461;28;19941;-44
2022/08/17 02:55:11;;;;;;;;;;;26.60;37.20;;;;;;8399215;28;19917;-45
2022/08/17 02:59:12;;;;;;;;;;;26.60;37.70;;;;;;8398985;28;19925;-44
2022/08/17 03:03:17;;;;;;;;;;;26.60;37.20;;;;;;8399566;28;19912;-45
2022/08/17 03:07:19;;;;;;;;;;;26.60;37.20;;;;;;8398972;28;19917;-45
2022/08/17 03:11:19;;;;;;;;;;;26.50;37.10;;;;;;8398592;28;19920;-45
2022/08/17 03:15:24;;;;;;;;;;;26.60;37.20;;;;;;8398964;28;19916;-45
2022/08/17 03:19:25;;;;;;;;;;;26.60;37.20;;;;;;8398727;28;19924;-45
2022/08/17 03:23:26;;;;;;;;;;;26.60;37.20;;;;;;8398457;28;19919;-45
2022/08/17 03:27:26;;;;;;;;;;;26.50;37.20;;;;;;8398551;28;19929;-44
2022/08/17 03:31:26;;;;;;;;;;;26.50;37.20;;;;;;8398460;28;19927;-45
2022/08/17 03:35:28;;;;;;;;;;;26.50;37.30;;;;;;8397952;28;19924;-45
2022/08/17 03:39:29;;;;;;;;;;;26.50;37.30;;;;;;8398276;28;19932;-46
2022/08/17 03:43:30;;;;;;;;;;;26.50;37.30;;;;;;8398124;28;19919;-46
2022/08/17 04:00:29;;;;;;;;;;;26.50;37.40;;;;;;8402781;28;20407;-45
2022/08/17 04:04:29;;;;;;;;;;;26.50;37.40;;;;;;8397377;28;19916;-45
2022/08/17 04:08:30;;;;;;;;;;;26.50;37.40;;;;;;8395744;28;20004;-45
2022/08/17 04:12:42;;;;;;;;;;;26.50;37.40;;;;;;8393875;28;19934;-45
2022/08/17 04:16:43;;;;;;;;;;;26.50;37.40;;;;;;8397092;28;19922;-46
2022/08/17 04:20:43;;;;;;;;;;;26.50;37.40;;;;;;8396552;28;20388;-45
2022/08/17 04:24:44;;;;;;;;;;;26.50;37.40;;;;;;8396980;28;19969;-45
2022/08/17 04:28:44;;;;;;;;;;;26.50;37.40;;;;;;8397144;28;20438;-45
2022/08/17 04:32:58;;;;;;;;;;;26.40;37.40;;;;;;8396586;28;19924;-45
2022/08/17 04:36:58;;;;;;;;;;;26.50;37.50;;;;;;8396956;28;19916;-46
2022/08/17 04:45:19;;;;;;;;;;;26.40;37.40;;;;;;8404326;28;19978;-45
2022/08/17 04:49:19;;;;;;;;;;;26.40;37.40;;;;;;8396747;28;19917;-44
2022/08/17 04:53:20;;;;;;;;;;;26.40;37.40;;;;;;8396030;28;19916;-44
2022/08/17 04:57:21;;;;;;;;;;;26.40;37.40;;;;;;8396590;28;19916;-45
2022/08/17 05:01:22;;;;;;;;;;;26.40;37.50;;;;;;8396350;28;19924;-45
2022/08/17 05:05:24;;;;;;;;;;;26.40;37.50;;;;;;8396052;28;19924;-44
2022/08/17 05:09:24;;;;;;;;;;;26.40;37.50;;;;;;8396543;28;20293;-44
2022/08/17 05:13:26;;;;;;;;;;;26.40;37.50;;;;;;8396217;28;19923;-46
2022/08/17 05:17:27;;;;;;;;;;;26.40;37.50;;;;;;8397263;28;19921;-45
2022/08/17 05:21:27;;;;;;;;;;;26.40;37.50;;;;;;8402721;28;20361;-45
2022/08/17 05:25:29;;;;;;;;;;;26.40;37.60;;;;;;8402648;28;19919;-45
2022/08/17 05:29:30;;;;;;;;;;;26.40;37.50;;;;;;8402222;28;19966;-45
2022/08/17 05:33:32;;;;;;;;;;;26.40;37.50;;;;;;8402305;28;19974;-45
2022/08/17 05:37:33;;;;;;;;;;;26.40;37.50;;;;;;8401897;28;19916;-45
2022/08/17 05:41:33;;;;;;;;;;;26.40;37.60;;;;;;8401406;28;19920;-45
2022/08/17 05:45:35;;;;;;;;;;;26.30;38.00;;;;;;8402035;28;20300;-44
2022/08/17 05:49:36;;;;;;;;;;;26.30;37.50;;;;;;8401977;28;19916;-45
2022/08/17 05:54:14;;;;;;;;;;;26.40;37.60;;;;;;8401015;28;19967;-45
2022/08/17 05:58:38;;;;;;;;;;;26.30;37.50;;;;;;8266423;28;19979;-46
2022/08/17 06:02:48;;;;;;;;;;;26.30;37.50;;;;;;8338400;28;20335;-45
2022/08/17 06:06:54;;;;;;;;;;;26.30;37.50;;;;;;8417167;28;19916;-44
2022/08/17 06:11:13;;;;;;;;;;;26.30;37.60;;;;;;8434544;28;19916;-45
2022/08/17 06:15:13;;;;;;;;;;;26.30;37.60;;;;;;8434124;28;19918;-46
2022/08/17 06:19:43;;;;;;;;;;;26.30;37.60;;;;;;8434438;28;19924;-45
2022/08/17 06:23:46;;;;;;;;;;;26.30;37.60;;;;;;8382404;28;20377;-46
2022/08/17 06:27:57;;;;;;;;;;;26.30;37.50;;;;;;8423420;28;19942;-45
2022/08/17 06:31:58;;;;;;;;;;;26.40;37.60;;;;;;8433040;28;20380;-45
2022/08/17 06:36:17;;;;;;;;;;;26.30;37.60;;;;;;8433974;28;19917;-46
2022/08/17 06:40:20;;;;;;;;;;;26.30;37.60;;;;;;8433518;28;20011;-45
2022/08/17 06:44:37;;;;;;;;;;;26.30;37.60;;;;;;8433036;28;19919;-45
2022/08/17 06:48:55;;;;;;;;;;;26.30;37.60;;;;;;8433440;28;20365;-45
2022/08/17 06:53:02;;;;;;;;;;;26.30;37.50;;;;;;8433101;28;19927;-46
2022/08/17 06:57:13;;;;;;;;;;;26.30;37.60;;;;;;8432846;28;19917;-46
2022/08/17 07:01:16;;;;;;;;;;;26.30;37.60;;;;;;8433091;28;19928;-46
2022/08/17 07:05:19;;;;;;;;;;;26.30;37.60;;;;;;8431773;28;20304;-45
2022/08/17 07:09:24;;;;;;;;;;;26.30;37.60;;;;;;8432763;28;19926;-46
2022/08/17 07:13:28;;;;;;;;;;;26.30;37.60;;;;;;8432502;28;19923;-44
2022/08/17 07:17:28;;;;;;;;;;;26.30;37.50;;;;;;8431716;28;19916;-44
2022/08/17 07:21:37;;;;;;;;;;;26.30;37.50;;;;;;8432510;28;19920;-45
2022/08/17 07:25:37;;;;;;;;;;;26.30;38.00;;;;;;8432129;28;19923;-45
2022/08/17 07:29:50;;;;;;;;;;;26.30;37.50;;;;;;8431605;28;19912;-45
2022/08/17 07:34:05;;;;;;;;;;;26.30;37.50;;;;;;8431983;28;20377;-44
2022/08/17 07:38:07;;;;;;;;;;;26.40;37.50;;;;;;8431107;28;19920;-44
2022/08/17 07:42:09;;;;;;;;;;;26.40;37.50;;;;;;8430718;28;19916;-44
2022/08/17 07:50:39;;;;;;;;;;;26.40;37.50;;;;;;8431046;28;19965;-44
2022/08/17 07:54:40;;;;;;;;;;;26.40;37.50;;;;;;8431436;28;20658;-45
2022/08/17 07:58:41;;;;;;;;;;;26.40;37.40;;;;;;8431174;28;19930;-44
2022/08/17 08:02:44;;;;;;;;;;;26.40;37.40;;;;;;8430516;28;19923;-45
2022/08/17 08:06:46;;;;;;;;;;;26.40;37.40;;;;;;8431088;28;20387;-44
2022/08/17 08:10:56;;;;;;;;;;;26.40;37.40;;;;;;8431033;28;19920;-44
2022/08/17 08:15:17;;;;;;;;;;;26.40;37.40;;;;;;8405629;28;19920;-44
2022/08/17 08:19:17;;;;;;;;;;;26.50;38.00;;;;;;8409980;28;19954;-44
2022/08/17 08:23:21;;;;;;;;;;;26.40;37.40;;;;;;8396550;28;19920;-44
2022/08/17 08:27:21;;;;;;;;;;;26.50;37.40;;;;;;8396846;28;19948;-44
2022/08/17 08:31:48;;;;;;;;;;;26.50;37.40;;;;;;8397089;28;19943;-44
2022/08/17 08:35:54;;;;;;;;;;;26.50;37.40;;;;;;8396575;28;19913;-45
2022/08/17 08:40:07;;;;;;;;;;;26.50;37.40;;;;;;8396847;28;19924;-45
2022/08/17 08:44:26;;;;;;;;;;;26.50;37.40;;;;;;8396208;28;20003;-45
2022/08/17 08:48:54;;;;;;;;;;;26.50;37.30;;;;;;8396702;28;19925;-45
2022/08/17 08:53:01;;;;;;;;;;;26.50;37.40;;;;;;8365350;28;20373;-45
2022/08/17 08:57:06;;;;;;;;;;;26.60;37.40;;;;;;8396055;28;20372;-45
2022/08/17 09:01:12;;;;;;;;;;;26.60;37.40;;;;;;8396268;28;19924;-44
2022/08/17 09:05:31;;;;;;;;;;;26.60;37.40;;;;;;8396211;28;19916;-44
2022/08/17 09:09:41;;;;;;;;;;;26.60;37.30;;;;;;8396431;28;19975;-44
2022/08/17 09:13:41;;;;;;;;;;;26.60;37.30;;;;;;8396250;28;20396;-45
2022/08/17 09:17:48;;;;;;;;;;;26.70;37.30;;;;;;8395355;28;19920;-44
2022/08/17 09:21:53;;;;;;;;;;;26.60;37.30;;;;;;8395985;28;19916;-44
2022/08/17 09:25:58;;;;;;;;;;;26.60;37.30;;;;;;8396713;28;19974;-47
2022/08/17 09:30:01;;;;;;;;;;;26.70;37.30;;;;;;8396260;28;20362;-45
2022/08/17 09:34:04;;;;;;;;;;;26.70;37.30;;;;;;8395859;28;19921;-44
2022/08/17 09:38:27;;;;;;;;;;;26.70;37.30;;;;;;8395208;28;19966;-44
2022/08/17 09:42:30;;;;;;;;;;;26.70;37.30;;;;;;8387443;28;19913;-44
2022/08/17 09:46:35;;;;;;;;;;;26.70;37.80;;;;;;8395519;28;19917;-44
2022/08/17 09:50:45;;;;;;;;;;;26.80;37.30;;;;;;8395443;28;19970;-44
2022/08/17 09:54:45;;;;;;;;;;;26.80;37.30;;;;;;8395555;28;19920;-44
2022/08/17 09:58:59;;;;;;;;;;;26.80;37.30;;;;;;8395515;28;19924;-44
2022/08/17 10:03:14;;;;;;;;;;;26.80;37.80;;;;;;8395406;28;19916;-45
2022/08/17 10:07:21;;;;;;;;;;;26.90;37.30;;;;;;8400086;28;19913;-45
2022/08/17 10:16:11;;;;;;;;;;;26.90;37.20;;;;;;8401520;28;19995;-44
2022/08/17 10:20:17;;;;;;;;;;;26.90;37.20;;;;;;8399874;28;19924;-44
2022/08/17 10:29:05;;;;;;;;;;;27.00;37.30;;;;;;8399745;28;19955;-45
2022/08/17 10:33:14;;;;;;;;;;;27.00;37.20;;;;;;8400622;28;19920;-45
2022/08/17 10:37:33;;;;;;;;;;;27.00;37.20;;;;;;8400546;28;19919;-45
2022/08/17 10:41:41;;;;;;;;;;;27.00;37.20;;;;;;8400035;28;20293;-45
2022/08/17 10:45:47;;;;;;;;;;;27.00;37.10;;;;;;8400237;28;19940;-45
2022/08/17 10:49:52;;;;;;;;;;;27.10;37.20;;;;;;8399930;28;20377;-45
2022/08/17 10:53:54;;;;;;;;;;;27.10;37.20;;;;;;8399223;28;19924;-45
2022/08/17 10:58:14;;;;;;;;;;;27.10;37.20;;;;;;8399734;28;19923;-47
2022/08/17 11:02:17;;;;;;;;;;;27.10;37.20;;;;;;8398948;28;19931;-45
2022/08/17 11:06:22;;;;;;;;;;;27.10;37.10;;;;;;8399852;28;20032;-48
2022/08/17 11:10:41;;;;;;;;;;;27.10;37.10;;;;;;8399424;28;19925;-46
2022/08/17 11:14:49;;;;;;;;;;;27.10;37.10;;;;;;8398393;28;19916;-45
2022/08/17 11:19:10;;;;;;;;;;;27.10;37.10;;;;;;8398958;28;19920;-45
2022/08/17 11:23:11;;;;;;;;;;;27.10;37.20;;;;;;8398324;28;20377;-46
2022/08/17 11:27:25;;;;;;;;;;;27.10;37.10;;;;;;8398939;28;19913;-46
2022/08/17 11:31:28;;;;;;;;;;;27.10;37.10;;;;;;8398930;28;19951;-46
2022/08/17 11:35:37;;;;;;;;;;;27.10;37.10;;;;;;8397932;28;19917;-46
2022/08/17 11:39:44;;;;;;;;;;;27.10;37.10;;;;;;8398292;28;19932;-45
2022/08/17 11:44:03;;;;;;;;;;;27.10;37.10;;;;;;8398145;28;19924;-48
2022/08/17 11:52:38;;;;;;;;;;;27.10;37.10;;;;;;8399833;28;19919;-45
2022/08/17 11:56:43;;;;;;;;;;;27.20;37.10;;;;;;8397465;28;19959;-45
2022/08/17 12:00:43;;;;;;;;;;;27.20;37.10;;;;;;8397759;28;20388;-45
2022/08/17 12:05:02;;;;;;;;;;;27.20;37.00;;;;;;8397410;28;19913;-45
2022/08/17 12:09:10;;;;;;;;;;;27.20;37.00;;;;;;8397422;28;20400;-45
2022/08/17 12:13:13;;;;;;;;;;;27.30;37.00;;;;;;8397430;28;20284;-46
2022/08/17 12:17:14;;;;;;;;;;;27.30;37.00;;;;;;8397039;28;19912;-45
2022/08/17 12:21:14;;;;;;;;;;;27.30;37.00;;;;;;8397102;28;19931;-46
2022/08/17 12:25:20;;;;;;;;;;;27.30;37.10;;;;;;8397030;28;19970;-45
2022/08/17 12:29:22;;;;;;;;;;;27.30;37.00;;;;;;8395708;28;20274;-50
2022/08/17 12:33:24;;;;;;;;;;;27.30;37.00;;;;;;8396942;28;19970;-45
2022/08/17 12:37:30;;;;;;;;;;;27.40;37.00;;;;;;8396971;28;19916;-45
2022/08/17 12:41:39;;;;;;;;;;;27.40;37.00;;;;;;8396060;28;19924;-45
2022/08/17 12:45:40;;;;;;;;;;;27.40;37.00;;;;;;8396662;28;19917;-45
2022/08/17 12:49:41;;;;;;;;;;;27.40;36.90;;;;;;8396398;28;20027;-45
2022/08/17 12:53:49;;;;;;;;;;;27.40;36.90;;;;;;8396025;28;20297;-45
2022/08/17 12:57:52;;;;;;;;;;;27.40;36.90;;;;;;8396294;28;19913;-46
2022/08/17 13:01:53;;;;;;;;;;;27.50;36.90;;;;;;8396471;28;19919;-45
2022/08/17 13:05:55;;;;;;;;;;;27.50;36.90;;;;;;8395790;28;20304;-45
2022/08/17 13:09:56;;;;;;;;;;;27.50;36.90;;;;;;8386055;28;19923;-45
2022/08/17 13:14:06;;;;;;;;;;;27.50;36.90;;;;;;8372331;28;20304;-45
2022/08/17 13:18:26;;;;;;;;;;;27.50;36.90;;;;;;8395929;28;19923;-45
2022/08/17 13:22:31;;;;;;;;;;;27.50;36.90;;;;;;8396099;28;20061;-45
2022/08/17 13:26:34;;;;;;;;;;;27.50;36.80;;;;;;8395465;28;19917;-46
2022/08/17 13:30:35;;;;;;;;;;;27.50;36.80;;;;;;8387616;28;20370;-46
2022/08/17 13:34:35;;;;;;;;;;;27.60;36.80;;;;;;8378370;28;19917;-45
2022/08/17 13:38:39;;;;;;;;;;;27.60;36.60;;;;;;8395439;28;19932;-46
2022/08/17 13:42:47;;;;;;;;;;;27.60;36.70;;;;;;8401446;28;19913;-44
2022/08/17 13:46:51;;;;;;;;;;;27.60;36.70;;;;;;8401478;28;19921;-44
2022/08/17 13:50:57;;;;;;;;;;;27.60;36.70;;;;;;8401039;28;19938;-44
2022/08/17 13:55:00;;;;;;;;;;;27.60;36.80;;;;;;8401439;28;20010;-45
2022/08/17 13:59:04;;;;;;;;;;;27.60;36.70;;;;;;8400805;28;19928;-44
2022/08/17 14:03:05;;;;;;;;;;;27.60;36.70;;;;;;8401448;28;19912;-44
2022/08/17 14:07:11;;;;;;;;;;;27.60;36.70;;;;;;8401274;28;20057;-45
2022/08/17 14:11:12;;;;;;;;;;;27.60;36.80;;;;;;8400594;28;19923;-44
2022/08/17 14:15:14;;;;;;;;;;;27.60;36.70;;;;;;8401012;28;19917;-45
2022/08/17 14:19:14;;;;;;;;;;;27.60;36.70;;;;;;8400719;28;20381;-44
2022/08/17 14:23:14;;;;;;;;;;;27.70;36.80;;;;;;8400331;28;19920;-44
2022/08/17 14:27:17;;;;;;;;;;;27.60;36.70;;;;;;8400714;28;19995;-44
2022/08/17 14:31:19;;;;;;;;;;;27.70;37.30;;;;;;8400681;28;20597;-43
2022/08/17 14:35:21;;;;;;;;;;;27.70;36.80;;;;;;8399923;28;19927;-44
2022/08/17 14:39:21;;;;;;;;;;;27.70;36.80;;;;;;8400340;28;19930;-43
2022/08/17 14:43:22;;;;;;;;;;;27.70;36.80;;;;;;8400240;28;19916;-44
2022/08/17 14:47:23;;;;;;;;;;;27.70;36.80;;;;;;8399640;28;19912;-43
2022/08/17 14:51:26;;;;;;;;;;;27.70;36.80;;;;;;8399330;28;19916;-44
2022/08/17 14:55:27;;;;;;;;;;;27.60;36.70;;;;;;8399687;28;19916;-44
2022/08/17 14:59:27;;;;;;;;;;;27.70;36.70;;;;;;8398873;28;19962;-44
2022/08/17 15:03:29;;;;;;;;;;;27.70;36.80;;;;;;8399545;28;19919;-44
2022/08/17 15:07:30;;;;;;;;;;;27.70;36.80;;;;;;8399670;28;19927;-44
2022/08/17 15:11:30;;;;;;;;;;;27.70;36.80;;;;;;8398549;28;19946;-44
2022/08/17 15:15:31;;;;;;;;;;;27.70;36.80;;;;;;8399292;28;20003;-45
2022/08/17 15:19:31;;;;;;;;;;;27.70;36.80;;;;;;8398859;28;19925;-44
2022/08/17 15:23:32;;;;;;;;;;;27.70;36.70;;;;;;8398511;28;19963;-44
2022/08/17 15:27:33;;;;;;;;;;;27.70;36.80;;;;;;8398559;28;19916;-44
2022/08/17 15:31:33;;;;;;;;;;;27.70;36.80;;;;;;8398744;28;19961;-45
2022/08/17 15:35:34;;;;;;;;;;;27.70;36.80;;;;;;8397853;28;19917;-45
2022/08/17 15:39:34;;;;;;;;;;;27.70;36.80;;;;;;8398354;28;19931;-43
2022/08/17 15:43:35;;;;;;;;;;;27.70;36.80;;;;;;8398208;28;19999;-44
2022/08/17 15:47:36;;;;;;;;;;;27.70;36.80;;;;;;8397586;28;20289;-42
2022/08/17 15:51:36;;;;;;;;;;;27.70;36.90;;;;;;8397966;28;19924;-44
2022/08/17 15:55:37;;;;;;;;;;;27.70;36.90;;;;;;8397812;28;20381;-44
2022/08/17 15:59:37;;;;;;;;;;;27.70;37.00;;;;;;8397098;28;19929;-44
2022/08/17 16:03:38;;;;;;;;;;;27.70;37.00;;;;;;8378876;28;19913;-45
2022/08/17 16:07:39;;;;;;;;;;;27.70;37.00;;;;;;8396505;28;19944;-45
2022/08/17 16:11:39;;;;;;;;;;;27.60;37.00;;;;;;8396935;28;20007;-44
2022/08/17 16:15:40;;;;;;;;;;;27.60;37.10;;;;;;8397393;28;20342;-45
2022/08/17 16:19:40;;;;;;;;;;;27.60;37.10;;;;;;8396983;28;19924;-44
2022/08/17 16:23:40;;;;;;;;;;;27.60;37.10;;;;;;8396728;28;20419;-44
2022/08/17 16:27:41;;;;;;;;;;;27.60;37.00;;;;;;8396872;28;20392;-45
2022/08/17 16:31:42;;;;;;;;;;;27.60;37.00;;;;;;8397087;28;19955;-45
2022/08/17 16:35:42;;;;;;;;;;;27.60;37.00;;;;;;8396351;28;19922;-45
2022/08/17 16:39:43;;;;;;;;;;;27.60;37.00;;;;;;8396883;28;19974;-45
2022/08/17 16:43:44;;;;;;;;;;;27.60;37.00;;;;;;8397000;28;19912;-43
2022/08/17 16:47:45;;;;;;;;;;;27.60;37.00;;;;;;8396160;28;20301;-45
2022/08/17 16:51:46;;;;;;;;;;;27.60;37.00;;;;;;8396416;28;19920;-45
2022/08/17 16:55:47;;;;;;;;;;;27.60;37.00;;;;;;8396348;28;19924;-44
2022/08/17 16:59:50;;;;;;;;;;;27.60;37.00;;;;;;8395827;28;19935;-44
2022/08/17 17:03:52;;;;;;;;;;;27.60;37.00;;;;;;8396743;28;20387;-44
2022/08/17 17:08:02;;;;;;;;;;;27.50;37.00;;;;;;8396228;28;19916;-45
2022/08/17 17:12:04;;;;;;;;;;;27.50;36.90;;;;;;8396554;28;19917;-45
2022/08/17 17:16:10;;;;;;;;;;;27.60;37.00;;;;;;8402310;28;20285;-47
2022/08/17 17:20:14;;;;;;;;;;;27.50;37.00;;;;;;8402232;28;19947;-45
2022/08/17 17:24:20;;;;;;;;;;;27.50;37.10;;;;;;8403042;28;19913;-44
2022/08/17 17:28:23;;;;;;;;;;;27.50;37.00;;;;;;8402379;28;19924;-44
2022/08/17 17:32:29;;;;;;;;;;;27.50;37.00;;;;;;8401783;28;19920;-45
2022/08/17 17:36:35;;;;;;;;;;;27.50;37.00;;;;;;8402199;28;19916;-44
2022/08/17 17:40:37;;;;;;;;;;;27.50;37.00;;;;;;8402104;28;20258;-44
2022/08/17 17:44:40;;;;;;;;;;;27.50;37.00;;;;;;8379762;28;19921;-44
2022/08/17 17:48:40;;;;;;;;;;;27.50;37.00;;;;;;8380716;28;19925;-44
2022/08/17 17:53:00;;;;;;;;;;;27.50;37.00;;;;;;8399723;28;19916;-45
2022/08/17 17:57:14;;;;;;;;;;;27.50;37.00;;;;;;8377064;28;19916;-45
2022/08/17 18:01:33;;;;;;;;;;;27.50;37.00;;;;;;8399189;28;20012;-47
2022/08/17 18:05:40;;;;;;;;;;;27.50;37.10;;;;;;8394577;28;19917;-45
2022/08/17 18:09:54;;;;;;;;;;;27.50;37.00;;;;;;8399567;28;19924;-44
2022/08/17 18:14:14;;;;;;;;;;;27.50;37.00;;;;;;8380186;28;19917;-45
2022/08/17 18:18:21;;;;;;;;;;;27.50;37.00;;;;;;8386733;28;20392;-46
2022/08/17 18:22:22;;;;;;;;;;;27.50;37.00;;;;;;8380152;28;19917;-44
2022/08/17 18:26:32;;;;;;;;;;;27.50;37.00;;;;;;8393453;28;19921;-44
2022/08/17 18:30:32;;;;;;;;;;;27.50;37.00;;;;;;8396039;28;19916;-44
2022/08/17 18:34:33;;;;;;;;;;;27.50;37.00;;;;;;8392454;28;20023;-45
2022/08/17 18:38:34;;;;;;;;;;;27.50;37.00;;;;;;8397606;28;19924;-43
2022/08/17 18:42:37;;;;;;;;;;;27.50;37.00;;;;;;8396613;28;20015;-44
2022/08/17 18:46:37;;;;;;;;;;;27.50;37.10;;;;;;8391865;28;19921;-44
2022/08/17 18:50:40;;;;;;;;;;;27.50;37.00;;;;;;8390767;28;19917;-45
2022/08/17 18:54:58;;;;;;;;;;;27.50;37.00;;;;;;8385568;28;19917;-44
2022/08/17 18:59:03;;;;;;;;;;;27.50;37.00;;;;;;8393934;28;19925;-45
2022/08/17 19:03:15;;;;;;;;;;;27.50;37.10;;;;;;8377483;28;19982;-44
2022/08/17 19:07:15;;;;;;;;;;;27.50;37.10;;;;;;8381379;28;20365;-44
2022/08/17 19:11:25;;;;;;;;;;;27.50;37.10;;;;;;8391536;28;20031;-46
2022/08/17 19:15:28;;;;;;;;;;;27.40;37.10;;;;;;8380364;28;19917;-46
2022/08/17 19:19:34;;;;;;;;;;;27.50;37.20;;;;;;8384081;28;20061;-46
2022/08/17 19:23:43;;;;;;;;;;;27.40;37.20;;;;;;8382072;28;19923;-45
2022/08/17 19:27:46;;;;;;;;;;;27.40;37.20;;;;;;8387848;28;19962;-44
2022/08/17 19:31:47;;;;;;;;;;;27.40;37.30;;;;;;8379880;28;20378;-46
2022/08/17 19:35:57;;;;;;;;;;;27.40;37.20;;;;;;8390887;28;20011;-46
2022/08/17 19:40:04;;;;;;;;;;;27.40;37.30;;;;;;8394642;28;19929;-46
2022/08/17 19:44:14;;;;;;;;;;;27.40;37.40;;;;;;8394717;28;19917;-45
2022/08/17 19:48:38;;;;;;;;;;;27.40;37.40;;;;;;8381102;28;20385;-44
2022/08/17 19:52:45;;;;;;;;;;;27.40;37.50;;;;;;8373468;28;21686;-45
2022/08/17 19:57:04;;;;;;;;;;;27.40;37.50;;;;;;8374148;28;19924;-45
2022/08/17 20:01:05;;;;;;;;;;;27.40;37.60;;;;;;8384965;28;19925;-46
2022/08/17 20:05:20;;;;;;;;;;;27.30;37.60;;;;;;8390572;28;19962;-45
2022/08/17 20:09:36;;;;;;;;;;;27.30;37.60;;;;;;8384421;28;20019;-45
2022/08/17 20:13:45;;;;;;;;;;;27.30;37.70;;;;;;8384410;28;20358;-45
2022/08/17 20:17:46;;;;;;;;;;;27.30;37.60;;;;;;8381512;28;19932;-45
2022/08/17 20:22:05;;;;;;;;;;;27.30;37.70;;;;;;8385216;28;20362;-46
2022/08/17 20:26:15;;;;;;;;;;;27.30;37.70;;;;;;8381622;28;19952;-45
2022/08/17 20:30:21;;;;;;;;;;;27.30;37.70;;;;;;8370466;28;19916;-46
2022/08/17 20:34:25;;;;;;;;;;;27.30;37.70;;;;;;8391149;28;20423;-45
2022/08/17 20:38:42;;;;;;;;;;;27.30;37.80;;;;;;8396007;28;20374;-45
2022/08/17 20:42:42;;;;;;;;;;;27.30;37.80;;;;;;8396573;28;20014;-45
2022/08/17 20:47:03;;;;;;;;;;;27.30;37.90;;;;;;8396288;28;19913;-45
2022/08/17 20:51:19;;;;;;;;;;;27.30;38.00;;;;;;8395085;28;19916;-45
2022/08/17 20:55:38;;;;;;;;;;;27.30;38.10;;;;;;8396421;28;19920;-45
2022/08/17 20:59:38;;;;;;;;;;;27.30;38.10;;;;;;8395794;28;19929;-45
2022/08/17 21:03:42;;;;;;;;;;;27.20;38.10;;;;;;8396152;28;19916;-46
2022/08/17 21:07:53;;;;;;;;;;;27.20;38.10;;;;;;8396297;28;19934;-45
2022/08/17 21:11:58;;;;;;;;;;;27.20;38.10;;;;;;8395726;28;20444;-45
2022/08/17 21:16:21;;;;;;;;;;;27.30;38.20;;;;;;8396614;28;19966;-44
2022/08/17 21:20:28;;;;;;;;;;;27.20;38.10;;;;;;8395962;28;19974;-44
2022/08/17 21:24:42;;;;;;;;;;;27.20;38.10;;;;;;8395838;28;20464;-44
2022/08/17 21:29:05;;;;;;;;;;;27.20;38.10;;;;;;8396047;28;19920;-44
2022/08/17 21:33:15;;;;;;;;;;;27.20;38.20;;;;;;8395946;28;19920;-45
2022/08/17 21:37:18;;;;;;;;;;;27.20;38.20;;;;;;8395754;28;19944;-44
2022/08/17 21:41:30;;;;;;;;;;;27.20;38.80;;;;;;8395105;28;19928;-45
2022/08/17 21:45:33;;;;;;;;;;;27.20;38.30;;;;;;8395932;28;19966;-45
2022/08/17 21:49:34;;;;;;;;;;;27.20;38.30;;;;;;8395699;28;20496;-45
2022/08/17 21:53:40;;;;;;;;;;;27.10;38.20;;;;;;8395152;28;19917;-44
2022/08/17 21:57:41;;;;;;;;;;;27.10;38.20;;;;;;8395374;28;19913;-44
2022/08/17 22:01:41;;;;;;;;;;;27.10;38.20;;;;;;8399409;28;19924;-45
2022/08/17 22:05:43;;;;;;;;;;;27.10;38.20;;;;;;8399972;28;19919;-45
2022/08/17 22:09:45;;;;;;;;;;;27.10;38.20;;;;;;8401113;28;19974;-45
2022/08/17 22:13:45;;;;;;;;;;;27.10;38.30;;;;;;8401045;28;19944;-46
2022/08/17 22:17:46;;;;;;;;;;;27.10;38.30;;;;;;8400479;28;20404;-46
2022/08/17 22:21:46;;;;;;;;;;;27.10;38.30;;;;;;8400969;28;19929;-44
2022/08/17 22:26:01;;;;;;;;;;;27.10;38.30;;;;;;8401033;28;20007;-45
2022/08/17 22:30:13;;;;;;;;;;;27.10;38.30;;;;;;8400299;28;20324;-45
2022/08/17 22:34:14;;;;;;;;;;;27.10;38.30;;;;;;8400663;28;19973;-44
2022/08/17 22:38:17;;;;;;;;;;;27.10;38.30;;;;;;8400117;28;19916;-44
2022/08/17 22:42:18;;;;;;;;;;;27.10;38.30;;;;;;8400109;28;19970;-44
2022/08/17 22:46:19;;;;;;;;;;;27.00;38.30;;;;;;8400465;28;19970;-44
2022/08/17 22:50:24;;;;;;;;;;;27.10;38.40;;;;;;8399726;28;19924;-45
2022/08/17 23:03:20;;;;;;;;;;;27.00;38.40;;;;;;8399372;28;19923;-46
2022/08/17 23:07:21;;;;;;;;;;;27.00;38.40;;;;;;8399458;28;19912;-44
2022/08/17 23:11:24;;;;;;;;;;;27.00;38.40;;;;;;8398591;28;19952;-45
2022/08/17 23:15:32;;;;;;;;;;;27.00;38.40;;;;;;8399507;28;19978;-45
2022/08/17 23:19:33;;;;;;;;;;;27.00;38.40;;;;;;8400400;28;19977;-44
2022/08/17 23:23:33;;;;;;;;;;;27.00;38.40;;;;;;8398529;28;20440;-44
2022/08/17 23:27:34;;;;;;;;;;;27.00;38.40;;;;;;8398882;28;19916;-44
2022/08/17 23:31:37;;;;;;;;;;;27.00;38.50;;;;;;8399076;28;19951;-44
2022/08/17 23:35:37;;;;;;;;;;;27.00;38.50;;;;;;8398149;28;20427;-44
2022/08/17 23:39:38;;;;;;;;;;;26.90;38.40;;;;;;8398248;28;19928;-44
2022/08/17 23:43:39;;;;;;;;;;;26.90;38.50;;;;;;8398129;28;20015;-44
2022/08/17 23:47:39;;;;;;;;;;;27.00;38.50;;;;;;8397574;28;20327;-45
2022/08/17 23:51:42;;;;;;;;;;;26.90;38.40;;;;;;8398152;28;19944;-44
2022/08/17 23:55:43;;;;;;;;;;;26.90;38.50;;;;;;8397930;28;19917;-44
2022/08/17 23:59:44;;;;;;;;;;;26.90;38.50;;;;;;8397124;28;19924;-44
